Time;durP1;ratioP1;P1;durP2;ratioP2;P2;SDS_P1;SDS_P2;PMS_P1;PMS_P2;Temp;Humidity;BMP_temperature;BMP_pressure;BME280_temperature;BME280_humidity;BME280_pressure;Samples;Min_cycle;Max_cycle;Signal;HPM_P1;HPM_P2
2021/09/24 00:01:05;;;;;;;4.22;3.53;;;11.80;78.40;;;;;;5056494;28;20077;-72
2021/09/24 00:03:31;;;;;;;5.75;3.30;;;11.90;78.40;;;;;;5056369;28;20066;-72
2021/09/24 00:05:56;;;;;;;8.20;4.40;;;11.90;78.20;;;;;;5056323;28;20045;-72
2021/09/24 00:08:22;;;;;;;5.43;4.28;;;11.80;78.30;;;;;;5056306;28;20092;-72
2021/09/24 00:10:47;;;;;;;7.57;3.95;;;11.70;79.30;;;;;;5056314;28;20024;-71
2021/09/24 00:13:13;;;;;;;5.80;3.92;;;11.70;79.60;;;;;;5056248;28;20025;-72
2021/09/24 00:15:39;;;;;;;4.57;3.72;;;11.70;79.60;;;;;;5056144;28;20033;-72
2021/09/24 00:18:04;;;;;;;6.05;4.32;;;11.80;79.40;;;;;;5056180;28;20056;-72
2021/09/24 00:20:30;;;;;;;5.25;4.22;;;11.80;79.40;;;;;;5056165;28;20047;-72
2021/09/24 00:22:56;;;;;;;6.90;4.03;;;11.80;79.30;;;;;;5056169;28;20057;-72
2021/09/24 00:25:21;;;;;;;5.80;4.38;;;11.70;79.40;;;;;;5056720;28;20036;-71
2021/09/24 00:27:47;;;;;;;7.63;4.28;;;11.70;79.50;;;;;;5059480;28;20603;-72
2021/09/24 00:30:13;;;;;;;5.57;3.88;;;11.80;79.30;;;;;;5057643;28;20029;-72
2021/09/24 00:32:39;;;;;;;6.13;3.78;;;11.70;79.30;;;;;;5061956;28;20363;-72
2021/09/24 00:35:05;;;;;;;7.57;3.95;;;11.70;79.40;;;;;;5057598;28;20031;-71
2021/09/24 00:37:30;;;;;;;5.50;3.97;;;11.60;79.60;;;;;;5058164;28;20231;-71
2021/09/24 00:39:56;;;;;;;5.05;3.42;;;11.60;79.50;;;;;;5056394;28;20104;-72
2021/09/24 00:42:22;;;;;;;5.57;4.00;;;11.60;79.70;;;;;;5055901;28;20021;-73
2021/09/24 00:44:50;;;;;;;7.32;4.43;;;11.50;80.50;;;;;;5055623;28;20545;-72
2021/09/24 00:47:20;;;;;;;10.27;4.55;;;11.40;80.90;;;;;;5055646;28;20485;-73
2021/09/24 00:49:47;;;;;;;7.28;4.63;;;11.40;81.00;;;;;;5055638;28;20033;-72
2021/09/24 00:52:12;;;;;;;5.78;4.43;;;11.50;81.10;;;;;;5055558;28;20494;-72
2021/09/24 00:54:39;;;;;;;6.75;4.47;;;11.50;81.10;;;;;;5055361;28;20037;-72
2021/09/24 00:57:05;;;;;;;6.07;4.70;;;11.40;81.20;;;;;;5055364;28;20017;-72
2021/09/24 00:59:31;;;;;;;6.35;4.40;;;11.50;81.20;;;;;;5055311;28;20052;-72
2021/09/24 01:01:57;;;;;;;12.60;4.25;;;11.50;81.00;;;;;;5055040;28;20505;-72
2021/09/24 01:04:23;;;;;;;7.93;4.15;;;11.50;81.00;;;;;;5055017;28;20025;-72
2021/09/24 01:06:49;;;;;;;6.40;4.38;;;11.60;81.20;;;;;;5055399;28;20032;-72
2021/09/24 01:09:15;;;;;;;5.25;4.43;;;11.60;81.40;;;;;;5055040;28;20462;-72
2021/09/24 01:11:41;;;;;;;5.28;4.25;;;11.50;81.80;;;;;;5055013;28;20037;-72
2021/09/24 01:14:07;;;;;;;7.80;4.25;;;11.60;81.50;;;;;;5055066;28;20071;-72
2021/09/24 01:16:33;;;;;;;5.78;4.10;;;11.60;81.30;;;;;;5055035;28;20489;-72
2021/09/24 01:18:58;;;;;;;9.75;4.57;;;11.60;81.20;;;;;;5055132;28;20362;-72
2021/09/24 01:21:24;;;;;;;7.18;4.63;;;11.70;81.10;;;;;;5055046;28;20089;-71
2021/09/24 01:23:50;;;;;;;7.03;4.40;;;11.70;81.00;;;;;;5054905;28;20029;-72
2021/09/24 01:26:16;;;;;;;5.15;4.13;;;11.60;80.70;;;;;;5054919;28;20037;-71
2021/09/24 01:28:44;;;;;;;7.57;4.93;;;11.50;81.00;;;;;;5054841;28;20159;-72
2021/09/24 01:31:11;;;;;;;10.27;5.03;;;11.40;81.40;;;;;;5054831;28;20021;-71
2021/09/24 01:33:41;;;;;;;5.35;4.20;;;11.40;81.90;;;;;;5054789;28;20470;-72
2021/09/24 01:36:07;;;;;;;8.82;4.97;;;11.30;82.20;;;;;;5054710;28;20033;-72
2021/09/24 01:38:33;;;;;;;5.50;4.55;;;11.30;82.30;;;;;;5054706;28;20051;-72
2021/09/24 01:40:58;;;;;;;5.30;4.43;;;11.30;82.40;;;;;;5054744;28;20424;-71
2021/09/24 01:43:24;;;;;;;6.38;4.63;;;11.40;82.20;;;;;;5054598;28;20091;-72
2021/09/24 01:45:49;;;;;;;7.65;4.57;;;11.30;82.10;;;;;;5054420;28;20087;-72
2021/09/24 01:48:15;;;;;;;7.10;4.47;;;11.30;82.10;;;;;;5054445;28;20021;-72
2021/09/24 01:50:41;;;;;;;7.75;4.38;;;11.30;83.30;;;;;;5053184;28;20074;-72
2021/09/24 01:53:06;;;;;;;7.18;4.00;;;11.20;82.80;;;;;;5054429;28;20025;-72
2021/09/24 01:55:32;;;;;;;7.75;4.63;;;11.20;82.70;;;;;;5054240;28;20100;-71
2021/09/24 01:57:57;;;;;;;7.35;4.32;;;11.20;82.60;;;;;;5054288;28;20113;-72
2021/09/24 02:00:23;;;;;;;5.50;4.18;;;11.20;82.60;;;;;;5054032;28;20052;-72
2021/09/24 02:02:49;;;;;;;9.95;5.30;;;11.20;82.70;;;;;;5053721;28;20033;-72
2021/09/24 02:05:14;;;;;;;8.00;4.90;;;11.10;83.60;;;;;;5053958;28;20032;-72
2021/09/24 02:07:40;;;;;;;7.97;5.15;;;11.10;84.10;;;;;;5052840;28;20058;-72
2021/09/24 02:10:07;;;;;;;7.50;4.55;;;11.10;84.50;;;;;;5053829;28;20490;-72
2021/09/24 02:12:32;;;;;;;11.02;4.97;;;11.10;84.80;;;;;;5053947;28;20021;-72
2021/09/24 02:14:58;;;;;;;6.80;4.70;;;11.10;84.80;;;;;;5053951;28;20035;-71
2021/09/24 02:17:23;;;;;;;8.63;5.05;;;11.10;84.90;;;;;;5053823;28;20533;-71
2021/09/24 02:19:49;;;;;;;5.97;4.50;;;11.10;85.10;;;;;;5053877;28;20032;-71
2021/09/24 02:22:15;;;;;;;8.32;5.20;;;11.20;85.00;;;;;;5053803;28;20057;-73
2021/09/24 02:24:40;;;;;;;6.93;4.75;;;11.20;84.90;;;;;;5053833;28;20163;-70
2021/09/24 02:27:06;;;;;;;6.18;4.93;;;11.20;85.20;;;;;;5053784;28;20099;-71
2021/09/24 02:29:31;;;;;;;14.02;4.63;;;11.10;85.30;;;;;;5059360;28;20036;-72
2021/09/24 02:31:57;;;;;;;6.60;4.88;;;11.20;85.20;;;;;;5057944;28;20192;-72
2021/09/24 02:34:22;;;;;;;6.70;5.07;;;11.20;85.20;;;;;;5056083;28;20082;-72
2021/09/24 02:36:48;;;;;;;8.52;5.63;;;11.20;84.80;;;;;;5053611;28;20108;-72
2021/09/24 02:39:14;;;;;;;6.53;5.13;;;11.10;84.30;;;;;;5053496;28;20029;-71
2021/09/24 02:41:39;;;;;;;7.68;5.35;;;11.10;84.40;;;;;;5052256;28;20031;-71
2021/09/24 02:44:06;;;;;;;5.70;4.97;;;11.10;84.40;;;;;;5053307;28;20500;-72
2021/09/24 02:46:32;;;;;;;9.40;5.65;;;11.10;84.80;;;;;;5053367;28;20058;-72
2021/09/24 02:48:57;;;;;;;6.85;5.30;;;11.00;84.90;;;;;;5053616;28;20432;-71
2021/09/24 02:51:23;;;;;;;10.05;6.18;;;11.00;85.00;;;;;;5053677;28;20108;-72
2021/09/24 02:53:48;;;;;;;7.93;5.50;;;10.90;85.20;;;;;;5053470;28;20147;-72
2021/09/24 02:56:14;;;;;;;8.82;5.78;;;10.90;85.00;;;;;;5053201;28;20025;-71
2021/09/24 02:58:39;;;;;;;8.80;5.35;;;10.90;84.70;;;;;;5053349;28;20039;-72
2021/09/24 03:01:05;;;;;;;8.45;5.60;;;10.90;85.10;;;;;;5053215;28;20134;-72
2021/09/24 03:03:30;;;;;;;9.13;5.75;;;10.90;85.40;;;;;;5053252;28;20040;-72
2021/09/24 03:05:56;;;;;;;8.90;5.55;;;10.90;85.50;;;;;;5053065;28;20114;-72
2021/09/24 03:08:22;;;;;;;8.38;5.18;;;10.90;85.20;;;;;;5053255;28;20532;-72
2021/09/24 03:10:47;;;;;;;11.82;5.78;;;11.00;85.10;;;;;;5053226;28;20112;-72
2021/09/24 03:13:13;;;;;;;8.25;5.25;;;11.00;84.80;;;;;;5052588;28;20111;-72
2021/09/24 03:15:38;;;;;;;8.18;5.68;;;11.00;84.70;;;;;;5052585;28;20028;-72
2021/09/24 03:18:04;;;;;;;7.50;5.35;;;11.00;84.70;;;;;;5053061;28;20029;-72
2021/09/24 03:20:29;;;;;;;8.77;5.18;;;11.00;84.40;;;;;;5053001;28;20104;-72
2021/09/24 03:22:55;;;;;;;7.43;5.18;;;11.00;84.40;;;;;;5053012;28;20061;-72
2021/09/24 03:25:21;;;;;;;8.05;5.32;;;11.00;84.60;;;;;;5052738;28;20504;-72
2021/09/24 03:27:48;;;;;;;10.15;6.10;;;11.00;84.40;;;;;;5052991;28;20025;-72
2021/09/24 03:30:15;;;;;;;9.70;5.97;;;10.90;84.50;;;;;;5052802;28;20029;-72
2021/09/24 03:32:42;;;;;;;9.07;5.43;;;11.00;84.70;;;;;;5052851;28;20462;-72
2021/09/24 03:35:09;;;;;;;8.85;5.80;;;10.90;84.40;;;;;;5052857;28;20411;-72
2021/09/24 03:37:34;;;;;;;8.40;5.40;;;10.90;84.50;;;;;;5052804;28;20025;-72
2021/09/24 03:40:00;;;;;;;8.20;5.00;;;10.80;84.80;;;;;;5052778;28;20033;-72
2021/09/24 03:42:26;;;;;;;9.32;5.43;;;10.80;85.10;;;;;;5052693;28;20497;-72
2021/09/24 03:44:52;;;;;;;8.10;5.78;;;10.70;85.20;;;;;;5052522;28;20040;-73
2021/09/24 03:47:17;;;;;;;10.30;6.80;;;10.70;85.70;;;;;;5052421;28;20108;-73
2021/09/24 03:49:43;;;;;;;10.70;7.00;;;10.70;85.70;;;;;;5052562;28;20063;-73
2021/09/24 03:52:08;;;;;;;11.60;8.98;;;10.70;85.40;;;;;;5052762;28;20033;-73
2021/09/24 03:54:34;;;;;;;11.93;8.35;;;10.80;84.90;;;;;;5052589;28;20029;-73
2021/09/24 03:57:00;;;;;;;9.70;7.40;;;10.70;84.90;;;;;;5052631;28;20377;-73
2021/09/24 03:59:26;;;;;;;11.80;6.25;;;10.70;85.10;;;;;;5052537;28;20547;-72
2021/09/24 04:01:51;;;;;;;9.52;6.45;;;10.70;85.60;;;;;;5052427;28;20049;-73
2021/09/24 04:04:17;;;;;;;10.88;6.35;;;10.70;85.80;;;;;;5052441;28;20021;-73
2021/09/24 04:06:43;;;;;;;10.05;6.03;;;10.70;86.10;;;;;;5052487;28;20048;-73
2021/09/24 04:09:09;;;;;;;9.63;6.50;;;10.70;85.80;;;;;;5052287;28;20028;-72
2021/09/24 04:11:37;;;;;;;14.80;7.28;;;10.70;85.80;;;;;;5052528;28;20112;-72
2021/09/24 04:14:02;;;;;;;9.27;6.93;;;10.70;85.90;;;;;;5052503;28;20092;-72
2021/09/24 04:16:28;;;;;;;11.20;6.68;;;10.60;85.80;;;;;;5052299;28;20064;-73
2021/09/24 04:18:53;;;;;;;8.90;5.85;;;10.60;86.10;;;;;;5052289;28;20100;-73
2021/09/24 04:21:19;;;;;;;10.82;6.72;;;10.60;86.00;;;;;;5052325;28;20108;-72
2021/09/24 04:23:44;;;;;;;12.93;6.43;;;10.60;86.10;;;;;;5052369;28;20025;-73
2021/09/24 04:26:10;;;;;;;9.75;6.45;;;10.60;85.90;;;;;;5054535;28;20037;-72
2021/09/24 04:28:36;;;;;;;10.45;6.60;;;10.50;85.90;;;;;;5055903;28;20462;-72
2021/09/24 04:31:02;;;;;;;9.73;6.55;;;10.60;85.90;;;;;;5055981;28;20079;-72
2021/09/24 04:33:27;;;;;;;11.82;6.03;;;10.50;86.20;;;;;;5055752;28;20099;-72
2021/09/24 04:35:53;;;;;;;11.20;6.40;;;10.60;86.10;;;;;;5055817;28;20508;-73
2021/09/24 04:38:18;;;;;;;12.73;6.10;;;10.60;86.30;;;;;;5055639;28;20029;-72
2021/09/24 04:40:44;;;;;;;10.38;6.63;;;10.60;86.40;;;;;;5055923;28;20027;-72
2021/09/24 04:43:10;;;;;;;9.80;6.60;;;10.50;87.00;;;;;;5055633;28;20063;-72
2021/09/24 04:45:36;;;;;;;11.10;6.25;;;10.50;87.20;;;;;;5055722;28;20029;-73
2021/09/24 04:48:01;;;;;;;14.15;6.95;;;10.50;87.20;;;;;;5057116;28;20017;-74
2021/09/24 04:50:27;;;;;;;9.93;6.07;;;10.50;86.90;;;;;;5057736;28;20079;-73
2021/09/24 04:52:53;;;;;;;9.25;5.90;;;10.50;87.20;;;;;;5055298;28;20355;-72
2021/09/24 04:55:19;;;;;;;9.10;6.63;;;10.50;87.20;;;;;;5055511;28;20052;-72
2021/09/24 04:57:45;;;;;;;9.30;6.88;;;10.40;87.20;;;;;;5055481;28;20099;-72
2021/09/24 05:00:12;;;;;;;12.35;7.45;;;10.40;87.50;;;;;;5055144;28;20025;-72
2021/09/24 05:02:38;;;;;;;12.82;6.75;;;10.40;87.70;;;;;;5053986;28;20041;-73
2021/09/24 05:05:05;;;;;;;10.50;6.60;;;10.50;87.80;;;;;;5055173;28;20031;-72
2021/09/24 05:07:30;;;;;;;10.93;6.60;;;10.40;87.70;;;;;;5055184;28;20029;-72
2021/09/24 05:09:56;;;;;;;10.68;6.95;;;10.40;87.20;;;;;;5055041;28;20036;-73
2021/09/24 05:12:22;;;;;;;10.30;6.82;;;10.30;87.10;;;;;;5054983;28;20025;-72
2021/09/24 05:14:47;;;;;;;11.05;6.65;;;10.20;86.70;;;;;;5054840;28;20037;-72
2021/09/24 05:17:13;;;;;;;13.73;6.90;;;10.20;86.90;;;;;;5054799;28;20412;-74
2021/09/24 05:19:39;;;;;;;10.88;6.75;;;10.20;87.20;;;;;;5054765;28;20378;-73
2021/09/24 05:22:05;;;;;;;12.02;7.38;;;10.10;87.30;;;;;;5054723;28;20033;-73
2021/09/24 05:24:30;;;;;;;11.55;6.72;;;10.10;87.20;;;;;;5054357;28;20025;-74
2021/09/24 05:26:56;;;;;;;8.45;6.88;;;10.10;87.60;;;;;;5054272;28;20082;-75
2021/09/24 05:29:22;;;;;;;9.93;6.80;;;10.10;87.60;;;;;;5054044;28;20021;-73
2021/09/24 05:31:48;;;;;;;10.25;7.05;;;10.10;88.00;;;;;;5052434;28;20424;-74
2021/09/24 05:34:14;;;;;;;14.75;7.25;;;10.20;88.00;;;;;;5053700;28;20477;-73
2021/09/24 05:36:40;;;;;;;10.13;6.45;;;10.20;87.90;;;;;;5053475;28;20108;-74
2021/09/24 05:39:05;;;;;;;8.60;6.50;;;10.30;87.60;;;;;;5053111;28;20385;-73
2021/09/24 05:41:31;;;;;;;12.20;7.20;;;10.20;87.50;;;;;;5054420;28;20481;-73
2021/09/24 05:43:57;;;;;;;9.45;7.10;;;10.30;89.30;;;;;;5052811;28;20025;-73
2021/09/24 05:46:22;;;;;;;14.63;7.20;;;10.50;89.00;;;;;;5054145;28;20029;-73
2021/09/24 05:48:48;;;;;;;13.43;6.68;;;10.60;88.50;;;;;;5054214;28;20123;-73
2021/09/24 05:51:14;;;;;;;11.95;6.78;;;10.80;87.60;;;;;;5054136;28;20028;-72
2021/09/24 05:53:40;;;;;;;13.13;7.35;;;10.90;86.90;;;;;;5054243;28;20437;-84
2021/09/24 05:56:06;;;;;;;27.92;10.15;;;11.20;88.20;;;;;;5053535;28;20489;-91
2021/09/24 05:58:31;;;;;;;13.60;7.07;;;11.40;86.60;;;;;;5055102;28;20067;-87
2021/09/24 06:00:57;;;;;;;14.80;7.22;;;11.60;85.40;;;;;;5055679;28;20084;-93
2021/09/24 06:03:23;;;;;;;10.98;6.38;;;11.90;84.50;;;;;;5063333;28;20047;-89
2021/09/24 06:05:49;;;;;;;11.80;6.75;;;12.20;84.20;;;;;;5067912;28;20021;-87
2021/09/24 06:08:15;;;;;;;8.90;6.18;;;12.40;83.10;;;;;;5064997;28;20024;-90
2021/09/24 06:10:40;;;;;;;10.15;6.93;;;12.60;80.70;;;;;;5063198;28;20029;-91
2021/09/24 06:13:07;;;;;;;9.85;6.50;;;12.60;79.70;;;;;;5056922;28;20495;-73
2021/09/24 06:15:33;;;;;;;9.90;6.13;;;12.70;79.20;;;;;;5053655;28;20477;-74
2021/09/24 06:17:58;;;;;;;8.38;6.00;;;12.70;78.50;;;;;;5053729;28;20029;-72
2021/09/24 06:20:24;;;;;;;9.02;6.88;;;12.70;77.60;;;;;;5053612;28;20288;-73
2021/09/24 06:22:50;;;;;;;11.63;6.97;;;12.50;78.40;;;;;;5053377;28;20040;-73
2021/09/24 06:25:18;;;;;;;10.07;6.00;;;12.20;79.60;;;;;;5052735;28;20192;-73
2021/09/24 06:27:44;;;;;;;10.10;6.97;;;12.10;80.40;;;;;;5053345;28;20047;-73
2021/09/24 06:30:13;;;;;;;10.68;7.10;;;12.00;80.50;;;;;;5053422;28;20025;-73
2021/09/24 06:32:39;;;;;;;10.25;6.32;;;12.00;80.70;;;;;;5052002;28;20025;-73
2021/09/24 06:35:06;;;;;;;12.00;6.38;;;12.00;80.70;;;;;;5053298;28;20501;-73
2021/09/24 06:37:31;;;;;;;10.88;6.75;;;12.10;81.00;;;;;;5053256;28;20043;-73
2021/09/24 06:39:57;;;;;;;13.13;6.93;;;12.10;81.40;;;;;;5053369;28;20032;-73
2021/09/24 06:42:23;;;;;;;10.77;6.45;;;12.10;81.80;;;;;;5053205;28;20025;-73
2021/09/24 06:44:48;;;;;;;10.43;6.47;;;12.00;81.90;;;;;;5035403;28;20462;-73
2021/09/24 06:47:17;;;;;;;11.07;6.72;;;12.00;82.00;;;;;;5053243;28;20029;-73
2021/09/24 06:49:42;;;;;;;7.18;5.88;;;12.00;82.20;;;;;;5052890;28;20017;-72
2021/09/24 06:52:08;;;;;;;10.75;7.05;;;12.10;82.60;;;;;;5053094;28;20033;-73
2021/09/24 06:54:34;;;;;;;17.58;7.15;;;12.20;82.30;;;;;;5053024;28;20088;-74
2021/09/24 06:57:00;;;;;;;8.60;5.68;;;12.30;82.20;;;;;;5052905;28;20040;-73
2021/09/24 06:59:26;;;;;;;10.90;5.97;;;12.40;82.00;;;;;;5052928;28;20025;-73
2021/09/24 07:01:55;;;;;;;10.80;6.57;;;12.50;81.60;;;;;;5051095;28;20524;-75
2021/09/24 07:04:21;;;;;;;9.50;6.57;;;12.60;81.40;;;;;;5034766;28;20496;-73
2021/09/24 07:06:48;;;;;;;9.30;6.05;;;12.60;81.20;;;;;;5052908;28;20029;-73
2021/09/24 07:09:14;;;;;;;12.00;6.28;;;12.70;81.40;;;;;;5052660;28;20159;-73
2021/09/24 07:11:40;;;;;;;12.45;6.80;;;12.80;80.90;;;;;;5052874;28;20086;-74
2021/09/24 07:14:08;;;;;;;9.88;6.35;;;12.90;80.60;;;;;;5052513;28;20028;-74
2021/09/24 07:16:38;;;;;;;11.02;6.97;;;13.00;80.40;;;;;;5052602;28;20052;-75
2021/09/24 07:19:05;;;;;;;8.13;6.40;;;13.10;80.30;;;;;;5052678;28;20079;-73
2021/09/24 07:21:30;;;;;;;10.07;6.35;;;13.30;79.90;;;;;;5051212;28;20119;-73
2021/09/24 07:23:57;;;;;;;11.98;5.97;;;13.40;79.50;;;;;;5052997;28;20521;-73
2021/09/24 07:26:22;;;;;;;8.77;5.47;;;13.50;79.30;;;;;;5052849;28;20032;-73
2021/09/24 07:28:48;;;;;;;8.70;6.28;;;13.60;78.90;;;;;;5052737;28;20033;-73
2021/09/24 07:31:13;;;;;;;11.55;6.38;;;13.70;78.70;;;;;;5052696;28;20029;-73
2021/09/24 07:33:39;;;;;;;8.93;5.65;;;13.90;78.40;;;;;;5052506;28;20039;-73
2021/09/24 07:36:05;;;;;;;9.15;5.90;;;14.00;78.00;;;;;;5052406;28;20065;-72
2021/09/24 07:38:30;;;;;;;8.43;5.97;;;14.10;77.90;;;;;;5052483;28;20025;-72
2021/09/24 07:40:56;;;;;;;8.82;5.65;;;14.30;77.80;;;;;;5052578;28;20124;-72
2021/09/24 07:43:22;;;;;;;6.68;5.22;;;14.40;77.40;;;;;;5052453;28;20036;-72
2021/09/24 07:45:47;;;;;;;8.50;5.93;;;14.50;77.30;;;;;;5052441;28;20070;-72
2021/09/24 07:48:13;;;;;;;10.85;6.93;;;14.60;76.90;;;;;;5052369;28;20017;-73
2021/09/24 07:50:39;;;;;;;10.68;6.72;;;14.80;76.70;;;;;;5051176;28;20037;-73
2021/09/24 07:53:04;;;;;;;10.00;7.22;;;14.80;76.20;;;;;;5052468;28;20026;-73
2021/09/24 07:55:30;;;;;;;12.60;6.35;;;14.90;75.90;;;;;;5052347;28;20029;-73
2021/09/24 07:57:56;;;;;;;9.50;6.13;;;15.00;76.20;;;;;;5052475;28;20545;-73
2021/09/24 08:00:23;;;;;;;10.90;6.10;;;15.20;75.90;;;;;;5053308;28;20366;-73
2021/09/24 08:02:49;;;;;;;7.63;6.07;;;15.30;75.50;;;;;;5056481;28;20079;-73
2021/09/24 08:05:15;;;;;;;6.70;5.38;;;15.40;75.20;;;;;;5056378;28;20033;-73
2021/09/24 08:07:41;;;;;;;6.80;5.28;;;15.60;74.90;;;;;;5056013;28;20027;-73
2021/09/24 08:10:07;;;;;;;8.30;5.80;;;15.70;74.80;;;;;;5055912;28;20041;-73
2021/09/24 08:12:32;;;;;;;7.13;5.47;;;15.90;73.80;;;;;;5056067;28;20029;-73
2021/09/24 08:14:58;;;;;;;9.63;5.88;;;16.00;73.20;;;;;;5056070;28;20037;-73
2021/09/24 08:17:23;;;;;;;8.82;5.70;;;16.10;72.60;;;;;;5055974;28;20458;-73
2021/09/24 08:19:49;;;;;;;9.48;5.80;;;16.20;72.20;;;;;;5056043;28;20373;-73
2021/09/24 08:22:15;;;;;;;5.82;4.93;;;16.40;72.20;;;;;;5056416;28;20449;-73
2021/09/24 08:24:40;;;;;;;5.63;4.93;;;16.50;71.70;;;;;;5056635;28;20040;-73
2021/09/24 08:27:06;;;;;;;6.97;5.40;;;16.70;71.70;;;;;;5057041;28;20164;-73
2021/09/24 08:29:32;;;;;;;6.50;5.18;;;16.90;71.40;;;;;;5056329;28;20032;-73
2021/09/24 08:31:57;;;;;;;9.25;5.15;;;17.00;70.00;;;;;;5055557;28;20029;-73
2021/09/24 08:34:23;;;;;;;8.07;4.90;;;17.10;68.70;;;;;;5055720;28;20120;-73
2021/09/24 08:36:48;;;;;;;5.93;4.93;;;17.30;69.40;;;;;;5055831;28;20033;-73
2021/09/24 08:39:14;;;;;;;7.97;5.70;;;17.40;67.50;;;;;;5055817;28;20028;-73
2021/09/24 08:41:40;;;;;;;5.93;5.05;;;17.60;67.00;;;;;;5055521;28;20492;-73
2021/09/24 08:44:06;;;;;;;8.10;5.22;;;17.70;65.00;;;;;;5055536;28;20017;-73
2021/09/24 08:46:34;;;;;;;6.80;5.32;;;17.90;64.30;;;;;;5055477;28;20043;-73
2021/09/24 08:49:03;;;;;;;11.80;5.38;;;17.90;64.70;;;;;;5055492;28;20487;-73
2021/09/24 08:51:29;;;;;;;6.57;4.90;;;18.00;65.00;;;;;;5055344;28;20556;-73
2021/09/24 08:53:55;;;;;;;7.53;4.22;;;18.10;64.90;;;;;;5053962;28;20116;-73
2021/09/24 08:56:20;;;;;;;5.53;4.90;;;18.30;65.50;;;;;;5055151;28;20039;-74
2021/09/24 08:58:46;;;;;;;6.65;4.72;;;18.30;62.90;;;;;;5055276;28;20028;-74
2021/09/24 09:01:12;;;;;;;5.80;3.95;;;18.40;60.20;;;;;;5054881;28;20053;-73
2021/09/24 09:03:43;;;;;;;8.55;4.68;;;18.40;59.00;;;;;;5055225;28;20029;-73
2021/09/24 09:06:12;;;;;;;6.05;4.10;;;18.50;59.30;;;;;;5054872;28;20025;-74
2021/09/24 09:08:37;;;;;;;5.88;4.38;;;18.40;58.60;;;;;;5055117;28;20075;-74
2021/09/24 09:11:16;;;;;;;6.60;4.72;;;18.30;58.80;;;;;;5055161;28;20416;-74
2021/09/24 09:13:53;;;;;;;7.55;4.20;;;18.30;58.70;;;;;;5054978;28;20071;-73
2021/09/24 09:16:23;;;;;;;7.13;4.05;;;18.50;58.40;;;;;;5054985;28;20485;-73
2021/09/24 09:19:02;;;;;;;5.35;4.28;;;18.50;57.40;;;;;;5054904;28;20128;-73
2021/09/24 09:21:28;;;;;;;4.60;4.15;;;18.70;57.70;;;;;;5054673;28;20029;-72
2021/09/24 09:23:55;;;;;;;6.18;4.43;;;18.90;57.00;;;;;;5054926;28;20021;-73
2021/09/24 09:26:21;;;;;;;6.45;4.25;;;19.10;56.60;;;;;;5054665;28;20380;-73
2021/09/24 09:28:59;;;;;;;8.13;4.45;;;19.30;55.60;;;;;;5054602;28;20384;-74
2021/09/24 09:31:28;;;;;;;5.60;4.45;;;19.40;54.90;;;;;;5057197;28;20036;-74
2021/09/24 09:33:57;;;;;;;4.85;4.20;;;19.60;54.70;;;;;;5055192;28;20075;-74
2021/09/24 09:36:33;;;;;;;10.32;5.43;;;19.60;56.30;;;;;;5054640;28;20037;-73
2021/09/24 09:38:59;;;;;;;7.22;4.05;;;19.70;54.80;;;;;;5056577;28;20029;-72
2021/09/24 09:41:26;;;;;;;6.22;4.53;;;19.80;53.70;;;;;;5057353;28;20025;-73
2021/09/24 09:43:59;;;;;;;6.30;4.32;;;19.70;53.00;;;;;;5059301;28;20116;-73
2021/09/24 09:46:30;;;;;;;6.57;4.00;;;19.80;53.40;;;;;;5058555;28;20021;-73
2021/09/24 09:49:02;;;;;;;6.90;4.47;;;19.60;54.80;;;;;;5055795;28;20492;-74
2021/09/24 09:51:28;;;;;;;5.50;4.47;;;19.90;52.40;;;;;;5053159;28;20063;-72
2021/09/24 09:53:54;;;;;;;5.78;5.00;;;20.00;52.40;;;;;;5053324;28;20166;-73
2021/09/24 09:56:21;;;;;;;6.95;4.30;;;20.00;52.40;;;;;;5052736;28;20174;-72
2021/09/24 09:58:47;;;;;;;7.18;4.25;;;20.20;53.50;;;;;;5052991;28;20021;-73
2021/09/24 10:01:17;;;;;;;5.35;3.85;;;20.30;52.40;;;;;;5052687;28;20049;-76
2021/09/24 10:03:49;;;;;;;4.85;4.22;;;20.50;50.80;;;;;;5036062;28;20025;-76
2021/09/24 10:06:32;;;;;;;5.65;3.72;;;20.60;51.00;;;;;;5052651;28;20025;-75
2021/09/24 10:09:04;;;;;;;4.95;3.20;;;20.80;49.00;;;;;;5053814;28;20024;-75
2021/09/24 10:11:32;;;;;;;4.60;3.70;;;20.90;46.40;;;;;;5052035;28;20028;-73
2021/09/24 10:14:04;;;;;;;6.13;3.80;;;20.90;46.70;;;;;;5052216;28;20067;-73
2021/09/24 10:16:35;;;;;;;6.18;3.67;;;21.00;46.90;;;;;;5052215;28;20112;-73
2021/09/24 10:19:01;;;;;;;3.92;3.33;;;21.30;47.20;;;;;;5051972;28;20021;-73
2021/09/24 10:21:27;;;;;;;3.65;3.28;;;21.00;45.70;;;;;;5051997;28;20037;-73
2021/09/24 10:23:53;;;;;;;4.00;3.45;;;21.00;46.20;;;;;;5051998;28;20040;-73
2021/09/24 10:26:31;;;;;;;6.80;3.45;;;21.30;44.60;;;;;;5051835;28;20516;-73
2021/09/24 10:29:09;;;;;;;4.30;3.20;;;21.20;46.00;;;;;;5052219;28;20036;-74
2021/09/24 10:31:37;;;;;;;5.97;3.53;;;21.10;45.30;;;;;;5052053;28;20025;-76
2021/09/24 10:34:04;;;;;;;4.57;2.80;;;21.20;45.60;;;;;;5052121;28;20432;-74
2021/09/24 10:36:47;;;;;;;3.40;3.10;;;20.90;46.00;;;;;;5035109;28;20087;-74
2021/09/24 10:39:30;;;;;;;4.57;3.42;;;21.20;45.10;;;;;;5051785;28;20495;-75
2021/09/24 10:42:15;;;;;;;3.67;3.17;;;21.50;45.60;;;;;;5052161;28;20056;-77
2021/09/24 10:45:18;;;;;;;4.22;3.83;;;21.70;44.00;;;;;;5052104;28;20515;-77
2021/09/24 10:48:05;;;;;;;4.57;3.67;;;21.90;43.60;;;;;;5051688;28;20021;-74
2021/09/24 10:50:30;;;;;;;6.18;2.83;;;22.00;43.70;;;;;;5051641;28;20025;-76
2021/09/24 10:53:22;;;;;;;4.28;3.22;;;22.00;42.80;;;;;;5050974;28;20028;-75
2021/09/24 10:55:54;;;;;;;4.10;3.13;;;21.90;42.50;;;;;;5051483;28;20116;-75
2021/09/24 10:58:23;;;;;;;3.70;2.92;;;21.90;42.50;;;;;;5051207;28;20024;-74
2021/09/24 11:00:50;;;;;;;5.95;3.38;;;22.20;42.30;;;;;;5050912;28;20497;-75
2021/09/24 11:03:22;;;;;;;7.07;3.50;;;22.40;41.90;;;;;;5050971;28;20059;-73
2021/09/24 11:06:06;;;;;;;4.25;3.10;;;22.30;42.10;;;;;;5051535;28;20041;-74
2021/09/24 11:08:36;;;;;;;4.38;2.63;;;22.20;41.40;;;;;;5051178;28;20158;-74
2021/09/24 11:11:20;;;;;;;3.17;2.88;;;22.40;40.20;;;;;;5052801;28;20075;-74
2021/09/24 11:13:51;;;;;;;7.63;3.03;;;22.40;40.90;;;;;;5052689;28;20032;-74
2021/09/24 11:16:27;;;;;;;4.38;2.90;;;22.60;40.70;;;;;;5046541;28;20037;-74
2021/09/24 11:18:56;;;;;;;3.35;3.05;;;22.60;40.70;;;;;;5050610;28;20094;-74
2021/09/24 11:21:45;;;;;;;5.85;4.22;;;22.90;41.20;;;;;;5034684;28;20029;-74
2021/09/24 11:24:31;;;;;;;7.32;4.35;;;22.90;40.80;;;;;;5051112;28;20033;-74
2021/09/24 11:27:03;;;;;;;4.22;3.65;;;23.00;39.60;;;;;;5050853;28;20116;-74
2021/09/24 11:29:29;;;;;;;5.72;3.60;;;23.10;38.90;;;;;;5050408;28;20029;-75
2021/09/24 11:32:03;;;;;;;5.78;3.80;;;23.20;38.60;;;;;;5050805;28;20086;-75
2021/09/24 11:34:43;;;;;;;6.13;3.28;;;23.40;38.40;;;;;;5050577;28;20108;-76
2021/09/24 11:37:22;;;;;;;5.72;4.40;;;23.80;38.50;;;;;;5051803;28;20358;-75
2021/09/24 11:39:56;;;;;;;7.13;4.13;;;23.70;39.20;;;;;;5051483;28;20475;-76
2021/09/24 11:42:22;;;;;;;7.32;4.30;;;23.40;38.40;;;;;;5051597;28;20025;-75
2021/09/24 11:44:51;;;;;;;4.20;3.80;;;23.70;39.30;;;;;;5053049;28;20033;-75
2021/09/24 11:47:31;;;;;;;6.30;4.97;;;24.20;38.30;;;;;;5052328;28;20397;-75
2021/09/24 11:50:02;;;;;;;5.68;3.50;;;24.50;36.90;;;;;;5051484;28;20074;-75
2021/09/24 11:52:47;;;;;;;3.92;3.38;;;24.60;36.00;;;;;;5047613;28;20051;-74
2021/09/24 11:55:25;;;;;;;4.57;3.00;;;24.40;35.30;;;;;;5017913;28;20068;-74
2021/09/24 11:58:12;;;;;;;5.55;3.00;;;24.00;35.30;;;;;;5015267;28;20032;-73
2021/09/24 12:00:52;;;;;;;3.20;2.50;;;23.80;35.80;;;;;;5015741;28;20052;-75
2021/09/24 12:03:31;;;;;;;4.45;3.30;;;23.80;35.30;;;;;;5017697;28;20029;-74
2021/09/24 12:06:09;;;;;;;9.35;7.85;;;24.30;34.90;;;;;;5021226;28;20093;-75
2021/09/24 12:08:57;;;;;;;3.83;2.95;;;24.80;34.10;;;;;;5044228;28;20022;-75
2021/09/24 12:11:25;;;;;;;3.50;3.20;;;25.10;34.40;;;;;;5025819;28;20045;-75
2021/09/24 12:13:58;;;;;;;3.65;3.00;;;25.10;34.70;;;;;;5019385;28;20022;-74
2021/09/24 12:16:26;;;;;;;4.90;3.33;;;25.40;34.90;;;;;;5022395;28;20039;-75
2021/09/24 12:19:01;;;;;;;6.88;3.92;;;25.70;34.30;;;;;;5023438;28;20025;-76
2021/09/24 12:21:35;;;;;;;5.85;3.80;;;25.60;33.80;;;;;;5021219;28;20071;-75
2021/09/24 12:24:05;;;;;;;3.40;3.10;;;25.50;35.20;;;;;;5020969;28;20022;-75
2021/09/24 12:26:36;;;;;;;3.40;3.00;;;25.10;35.10;;;;;;5019141;28;20032;-75
2021/09/24 12:29:06;;;;;;;3.75;2.80;;;24.50;34.50;;;;;;5014983;28;20032;-75
2021/09/24 12:31:43;;;;;;;4.50;3.28;;;24.90;34.80;;;;;;5031986;28;20068;-76
2021/09/24 12:34:18;;;;;;;5.72;3.50;;;25.10;33.70;;;;;;5014570;28;20035;-74
2021/09/24 12:36:49;;;;;;;3.38;2.72;;;25.10;34.90;;;;;;4997979;28;20043;-76
2021/09/24 12:39:17;;;;;;;3.22;2.70;;;25.60;34.70;;;;;;5014343;28;20025;-76
2021/09/24 12:41:53;;;;;;;3.00;2.70;;;25.80;32.00;;;;;;5031710;28;20488;-76
2021/09/24 12:44:20;;;;;;;5.07;3.15;;;26.10;31.80;;;;;;5014045;28;20034;-76
2021/09/24 12:46:56;;;;;;;5.43;3.17;;;26.00;32.60;;;;;;5033753;28;20362;-75